Time;durP1;ratioP1;P1;durP2;ratioP2;P2;SDS_P1;SDS_P2;PMS_P1;PMS_P2;Temp;Humidity;BMP_temperature;BMP_pressure;BME280_temperature;BME280_humidity;BME280_pressure;Samples;Min_cycle;Max_cycle;Signal;HPM_P1;HPM_P2
2024/02/06 00:01:08;;;;;;;4.60;2.05;;;;;;;18.49;45.40;101450.66;4979760;28;20024;-69
2024/02/06 00:03:33;;;;;;;4.80;1.90;;;;;;;18.62;45.70;101477.00;4979066;28;20368;-67
2024/02/06 00:05:59;;;;;;;4.37;1.80;;;;;;;18.46;45.66;101441.16;4979627;28;20121;-67
2024/02/06 00:08:24;;;;;;;4.57;2.00;;;;;;;18.51;45.31;101461.94;4979635;28;20256;-67
2024/02/06 00:10:50;;;;;;;4.05;1.67;;;;;;;18.52;45.38;101453.06;4979252;28;20026;-67
2024/02/06 00:13:15;;;;;;;4.97;1.90;;;;;;;18.55;45.23;101454.63;4979342;28;20026;-67
2024/02/06 00:15:41;;;;;;;4.90;1.70;;;;;;;18.46;45.56;101453.53;4979211;28;20034;-67
2024/02/06 00:18:07;;;;;;;4.47;2.03;;;;;;;18.46;45.49;101435.88;4979496;28;20033;-68
2024/02/06 00:20:32;;;;;;;3.60;1.60;;;;;;;18.44;45.36;101436.97;4979852;28;20490;-68
2024/02/06 00:22:57;;;;;;;4.10;1.92;;;;;;;18.47;45.41;101439.38;4979675;28;20030;-67
2024/02/06 00:25:23;;;;;;;4.38;1.83;;;;;;;18.54;45.51;101447.69;4979571;28;20031;-67
2024/02/06 00:27:48;;;;;;;4.43;1.90;;;;;;;18.53;45.50;101438.91;4979850;28;20045;-67
2024/02/06 00:30:13;;;;;;;6.00;1.70;;;;;;;18.50;45.45;101433.88;4979096;28;20391;-66
2024/02/06 00:32:39;;;;;;;4.40;1.52;;;;;;;18.46;45.52;101429.75;4979329;28;20166;-68
2024/02/06 00:35:04;;;;;;;4.75;1.80;;;;;;;18.36;45.31;101411.13;4979500;28;20034;-67
2024/02/06 00:37:32;;;;;;;4.50;1.80;;;;;;;18.47;45.23;101421.75;4979748;28;20031;-67
2024/02/06 00:39:58;;;;;;;4.80;2.10;;;;;;;18.36;45.20;101394.44;4979169;28;20089;-67
2024/02/06 00:42:23;;;;;;;6.07;1.80;;;;;;;18.34;45.15;101396.34;4977919;28;20490;-67
2024/02/06 00:44:48;;;;;;;6.38;2.10;;;;;;;18.41;45.44;101405.53;4977733;28;20126;-67
2024/02/06 00:47:16;;;;;;;4.18;1.50;;;;;;;18.46;45.34;101413.94;4978082;28;20057;-67
2024/02/06 00:49:41;;;;;;;5.32;1.75;;;;;;;18.44;45.34;101403.50;4979251;28;20084;-67
2024/02/06 00:52:06;;;;;;;5.35;1.52;;;;;;;18.30;45.21;101391.28;4979428;28;20077;-68
2024/02/06 00:54:32;;;;;;;4.35;1.90;;;;;;;18.29;45.28;101381.72;4978896;28;20034;-68
2024/02/06 00:56:57;;;;;;;4.53;1.92;;;;;;;18.42;45.14;101408.03;4979332;28;20117;-67
2024/02/06 00:59:22;;;;;;;4.78;1.60;;;;;;;18.39;45.15;101403.00;4978497;28;20030;-68
2024/02/06 01:01:48;;;;;;;4.60;1.95;;;;;;;18.31;45.13;101385.06;4977264;28;20039;-68
2024/02/06 01:04:13;;;;;;;4.35;1.63;;;;;;;18.30;45.16;101383.38;4977795;28;20072;-68
2024/02/06 01:06:39;;;;;;;3.70;1.60;;;;;;;18.41;45.20;101398.44;4978562;28;20039;-67
2024/02/06 01:09:04;;;;;;;3.92;1.60;;;;;;;18.36;44.95;101395.28;4978661;28;20038;-68
2024/02/06 01:11:30;;;;;;;5.13;1.88;;;;;;;18.27;45.03;101367.78;4978330;28;20038;-67
2024/02/06 01:13:55;;;;;;;4.75;1.50;;;;;;;18.36;45.03;101386.53;4978134;28;20034;-66
2024/02/06 01:16:20;;;;;;;5.55;1.90;;;;;;;18.30;44.83;101385.19;4978420;28;20030;-66
2024/02/06 01:18:46;;;;;;;4.25;1.70;;;;;;;18.22;45.19;101369.91;4978515;28;20042;-67
2024/02/06 01:21:11;;;;;;;4.47;1.70;;;;;;;18.34;45.14;101385.78;4978956;28;20037;-66
2024/02/06 01:23:36;;;;;;;5.68;2.05;;;;;;;18.30;45.16;101385.19;4978345;28;20038;-67
2024/02/06 01:26:02;;;;;;;5.72;2.05;;;;;;;18.21;45.12;101367.38;4978552;28;20502;-67
2024/02/06 01:28:27;;;;;;;4.30;1.73;;;;;;;18.32;45.25;101378.00;4968933;28;20121;-67
2024/02/06 01:30:52;;;;;;;4.53;1.45;;;;;;;18.30;45.08;101377.28;4978102;28;20112;-67
2024/02/06 01:33:18;;;;;;;4.70;1.85;;;;;;;18.19;45.23;101351.69;4977916;28;20036;-67
2024/02/06 01:35:43;;;;;;;4.90;1.70;;;;;;;18.30;45.10;101358.81;4978527;28;20035;-67
2024/02/06 01:38:08;;;;;;;4.90;1.80;;;;;;;18.19;44.74;101335.00;4977065;28;20541;-67
2024/02/06 01:40:43;;;;;;;4.65;1.67;;;;;;;18.30;45.14;101346.44;4977006;28;20070;-67
2024/02/06 01:43:09;;;;;;;5.65;1.90;;;;;;;18.16;45.08;101337.88;4978365;28;20387;-67
2024/02/06 01:45:35;;;;;;;6.97;1.98;;;;;;;18.26;45.10;101349.41;4978361;28;20093;-68
2024/02/06 01:48:00;;;;;;;3.75;1.45;;;;;;;18.25;44.99;101343.31;4978067;28;20058;-68
2024/02/06 01:50:26;;;;;;;4.05;1.65;;;;;;;18.27;44.89;101345.84;4977789;28;20031;-67
2024/02/06 01:52:52;;;;;;;4.05;1.65;;;;;;;18.29;44.80;101349.19;4978028;28;20039;-67
2024/02/06 01:55:18;;;;;;;3.92;1.52;;;;;;;18.26;44.87;101349.41;4977435;28;20073;-66
2024/02/06 01:57:44;;;;;;;4.53;1.77;;;;;;;18.28;45.12;101352.81;4977990;28;20077;-67
2024/02/06 02:00:10;;;;;;;5.10;1.58;;;;;;;18.23;45.12;101352.28;4977548;28;20089;-67
2024/02/06 02:02:36;;;;;;;4.70;1.63;;;;;;;18.22;44.99;101345.34;4978054;28;20475;-67
2024/02/06 02:05:02;;;;;;;7.50;1.92;;;;;;;18.25;44.98;101353.88;4977824;28;20042;-67
2024/02/06 02:07:30;;;;;;;4.72;1.75;;;;;;;18.12;45.04;101334.63;4968587;28;20485;-67
2024/02/06 02:09:55;;;;;;;5.03;1.70;;;;;;;18.13;45.11;101331.88;4977684;28;20037;-68
2024/02/06 02:12:21;;;;;;;3.85;1.80;;;;;;;18.20;44.99;101345.44;4977221;28;20034;-68
2024/02/06 02:14:46;;;;;;;4.50;1.80;;;;;;;18.12;44.50;101338.09;4977245;28;20030;-68
2024/02/06 02:17:12;;;;;;;5.75;1.80;;;;;;;18.19;45.01;101338.47;4977747;28;20117;-68
2024/02/06 02:19:37;;;;;;;4.88;1.65;;;;;;;18.08;44.96;101318.16;4976840;28;20133;-68
2024/02/06 02:22:02;;;;;;;4.65;1.75;;;;;;;18.19;44.90;101330.56;4977649;28;20448;-67
2024/02/06 02:24:27;;;;;;;6.70;1.98;;;;;;;18.16;44.74;101325.53;4977381;28;20081;-68
2024/02/06 02:26:54;;;;;;;4.30;1.63;;;;;;;18.17;44.89;101321.09;4977851;28;20038;-69
2024/02/06 02:29:20;;;;;;;4.70;1.80;;;;;;;18.00;44.82;101290.69;4975832;28;20081;-67
2024/02/06 02:31:46;;;;;;;5.53;1.77;;;;;;;18.21;44.70;101326.00;4977358;28;20468;-67
2024/02/06 02:34:12;;;;;;;4.30;1.70;;;;;;;18.11;44.78;101296.00;4976944;28;20053;-67
2024/02/06 02:36:39;;;;;;;5.63;1.80;;;;;;;18.17;45.04;101314.03;4977117;28;20476;-67
2024/02/06 02:39:04;;;;;;;4.47;1.80;;;;;;;18.12;44.86;101303.81;4976525;28;20490;-69
2024/02/06 02:41:29;;;;;;;4.45;1.80;;;;;;;18.15;44.82;101302.75;4977181;28;20061;-68
2024/02/06 02:43:55;;;;;;;5.32;1.90;;;;;;;18.03;44.74;101286.03;4975922;28;20046;-69
2024/02/06 02:46:20;;;;;;;3.88;1.58;;;;;;;18.12;44.83;101297.69;4976033;28;20077;-69
2024/02/06 02:48:45;;;;;;;4.32;1.75;;;;;;;18.11;44.98;101299.47;4976442;28;20145;-68
2024/02/06 02:51:10;;;;;;;4.68;1.92;;;;;;;17.95;44.62;101268.13;4977213;28;20464;-68
2024/02/06 02:53:36;;;;;;;5.40;1.90;;;;;;;18.15;44.85;101291.34;4976434;28;20118;-68
2024/02/06 02:56:01;;;;;;;6.65;1.83;;;;;;;18.12;44.49;101293.25;4976568;28;20035;-68
2024/02/06 02:58:26;;;;;;;3.72;1.42;;;;;;;18.16;44.87;101290.38;4976426;28;20035;-68
2024/02/06 03:00:51;;;;;;;4.85;1.70;;;;;;;18.10;44.80;101286.41;4976891;28;20097;-68
2024/02/06 03:03:17;;;;;;;4.38;1.70;;;;;;;18.09;44.97;101277.66;4975614;28;20042;-68
2024/02/06 03:05:42;;;;;;;6.05;1.80;;;;;;;17.99;44.79;101252.06;4977349;28;20039;-68
2024/02/06 03:08:08;;;;;;;4.18;1.73;;;;;;;18.09;44.95;101261.00;4976873;28;20035;-68
2024/02/06 03:10:33;;;;;;;4.03;1.55;;;;;;;18.11;44.80;101267.00;4977474;28;20041;-67
2024/02/06 03:12:58;;;;;;;6.72;1.88;;;;;;;17.99;44.77;101247.66;4976789;28;20516;-69
2024/02/06 03:15:23;;;;;;;5.60;1.60;;;;;;;17.95;44.92;101244.38;4976784;28;20090;-68
2024/02/06 03:17:51;;;;;;;4.28;1.50;;;;;;;18.04;44.90;101242.88;4977466;28;20527;-68
2024/02/06 03:20:18;;;;;;;4.50;1.92;;;;;;;17.99;45.11;101239.75;4976781;28;20035;-68
2024/02/06 03:22:43;;;;;;;4.10;1.65;;;;;;;18.10;45.13;101257.38;4976923;28;20115;-68
2024/02/06 03:25:08;;;;;;;3.83;1.67;;;;;;;17.94;44.96;101229.53;4980468;28;20442;-69
2024/02/06 03:27:34;;;;;;;4.60;1.75;;;;;;;18.09;44.90;101256.56;4980349;28;20039;-68
2024/02/06 03:30:02;;;;;;;4.40;1.55;;;;;;;17.92;45.09;101227.97;4980604;28;20039;-68
2024/02/06 03:32:27;;;;;;;4.57;1.70;;;;;;;17.97;45.05;101231.09;4980141;28;20077;-67
2024/02/06 03:34:52;;;;;;;4.95;1.67;;;;;;;17.97;45.16;101231.09;4980303;28;20031;-68
2024/02/06 03:37:18;;;;;;;5.78;1.98;;;;;;;17.97;45.05;101240.81;4980740;28;20018;-67
2024/02/06 03:39:43;;;;;;;5.10;1.73;;;;;;;18.01;45.04;101244.88;4980790;28;20031;-68
2024/02/06 03:42:08;;;;;;;4.22;1.58;;;;;;;17.95;44.94;101225.09;4980010;28;20092;-68
2024/02/06 03:44:34;;;;;;;3.67;1.45;;;;;;;18.01;45.04;101243.09;4980298;28;20082;-68
2024/02/06 03:46:59;;;;;;;5.32;1.90;;;;;;;17.94;44.76;101220.75;4980709;28;20037;-68
2024/02/06 03:49:24;;;;;;;4.38;1.52;;;;;;;18.08;44.94;101243.47;4979173;28;20419;-68
2024/02/06 03:51:49;;;;;;;4.55;1.70;;;;;;;18.07;44.88;101242.66;4979973;28;20034;-67
2024/02/06 03:54:15;;;;;;;5.82;1.90;;;;;;;18.04;45.05;101226.19;4980113;28;20106;-67
2024/02/06 03:56:40;;;;;;;3.67;1.50;;;;;;;18.02;45.12;101243.94;4980636;28;20034;-67
2024/02/06 03:59:05;;;;;;;5.75;1.63;;;;;;;18.02;44.83;101236.84;4978904;28;20045;-67
2024/02/06 04:01:31;;;;;;;4.80;1.63;;;;;;;18.00;45.14;101241.41;4978610;28;20065;-68
2024/02/06 04:03:56;;;;;;;4.05;1.48;;;;;;;17.90;45.10;101217.53;4980043;28;20514;-68
2024/02/06 04:06:21;;;;;;;6.40;1.88;;;;;;;17.91;44.64;101221.84;4980488;28;20034;-67
2024/02/06 04:08:46;;;;;;;3.88;1.55;;;;;;;17.94;44.89;101231.31;4980116;28;20077;-68
2024/02/06 04:11:12;;;;;;;5.80;2.28;;;;;;;18.02;45.05;101231.56;4980035;28;20034;-68
2024/02/06 04:13:38;;;;;;;5.10;1.67;;;;;;;17.89;44.75;101220.28;4979558;28;20066;-68
2024/02/06 04:16:04;;;;;;;5.32;1.95;;;;;;;17.89;44.92;101201.81;4979849;28;20030;-68
2024/02/06 04:18:30;;;;;;;4.22;1.80;;;;;;;17.99;44.69;101220.44;4979828;28;20042;-68
2024/02/06 04:20:55;;;;;;;5.28;1.83;;;;;;;18.02;44.99;101223.66;4979791;28;20067;-68
2024/02/06 04:23:21;;;;;;;4.25;1.70;;;;;;;18.02;44.89;101221.03;4979958;28;20037;-68
2024/02/06 04:25:46;;;;;;;4.95;1.60;;;;;;;18.01;44.91;101210.59;4979526;28;20030;-68
2024/02/06 04:28:11;;;;;;;5.93;1.55;;;;;;;17.97;44.77;101210.00;4979348;28;20037;-67
2024/02/06 04:30:37;;;;;;;6.65;1.83;;;;;;;17.90;44.69;101200.88;4979741;28;20031;-67
2024/02/06 04:33:03;;;;;;;4.47;1.55;;;;;;;17.87;44.98;101187.88;4979690;28;20027;-67
2024/02/06 04:35:29;;;;;;;4.63;1.75;;;;;;;17.88;44.82;101182.53;4979376;28;20157;-68
2024/02/06 04:37:54;;;;;;;5.00;1.73;;;;;;;17.84;44.99;101186.31;4979344;28;20109;-67
2024/02/06 04:40:19;;;;;;;5.88;1.90;;;;;;;17.95;44.83;101201.38;4979392;28;20117;-68
2024/02/06 04:42:45;;;;;;;4.15;1.92;;;;;;;17.87;45.05;101187.88;4979463;28;20026;-68
2024/02/06 04:45:10;;;;;;;6.05;1.92;;;;;;;17.86;44.65;101188.84;4979492;28;20467;-68
2024/02/06 04:47:35;;;;;;;4.18;1.55;;;;;;;17.94;44.90;101194.41;4978933;28;20042;-67
2024/02/06 04:50:01;;;;;;;4.72;1.63;;;;;;;17.78;44.86;101173.56;4979067;28;20142;-68
2024/02/06 04:52:26;;;;;;;4.00;1.42;;;;;;;17.89;45.00;101186.00;4979101;28;20074;-68
2024/02/06 04:54:52;;;;;;;5.00;1.73;;;;;;;17.88;45.07;101179.03;4979488;28;20115;-68
2024/02/06 04:57:17;;;;;;;4.68;1.80;;;;;;;17.84;44.94;101174.94;4979119;28;20045;-69
2024/02/06 04:59:43;;;;;;;6.68;1.90;;;;;;;17.91;44.98;101190.22;4979037;28;20027;-69
2024/02/06 05:02:08;;;;;;;4.18;1.80;;;;;;;17.82;45.32;101164.50;4978786;28;20085;-68
2024/02/06 05:04:34;;;;;;;6.88;2.10;;;;;;;17.76;44.92;101149.97;4977971;28;20031;-68
2024/02/06 05:06:59;;;;;;;6.20;2.05;;;;;;;17.81;44.90;101156.69;4978457;28;20061;-68
2024/02/06 05:09:24;;;;;;;4.05;1.88;;;;;;;17.93;45.10;101175.09;4979277;28;20114;-68
2024/02/06 05:11:49;;;;;;;4.18;1.70;;;;;;;17.92;44.95;101177.84;4978358;28;20038;-68
2024/02/06 05:14:15;;;;;;;6.25;1.88;;;;;;;17.80;45.12;101160.28;4969453;28;20392;-68
2024/02/06 05:16:40;;;;;;;6.35;1.70;;;;;;;17.87;45.07;101169.44;4978627;28;20030;-68
2024/02/06 05:19:07;;;;;;;4.55;1.60;;;;;;;17.80;45.05;101150.59;4978945;28;20385;-68
2024/02/06 05:21:32;;;;;;;5.00;1.80;;;;;;;17.88;45.11;101166.72;4978584;28;20402;-68
2024/02/06 05:23:58;;;;;;;5.13;1.60;;;;;;;17.89;45.07;101160.47;4978245;28;20030;-68
2024/02/06 05:26:23;;;;;;;4.55;1.70;;;;;;;17.87;45.02;101156.25;4978249;28;20038;-68
2024/02/06 05:28:49;;;;;;;4.78;2.00;;;;;;;17.79;44.95;101148.06;4978401;28;20073;-67
2024/02/06 05:31:14;;;;;;;5.25;1.98;;;;;;;17.83;45.10;101146.88;4978138;28;20486;-68
2024/02/06 05:33:39;;;;;;;4.70;1.58;;;;;;;17.90;45.10;101158.69;4977846;28;20034;-67
2024/02/06 05:36:05;;;;;;;5.53;2.00;;;;;;;17.92;44.85;101162.88;4977801;28;20042;-68
2024/02/06 05:38:30;;;;;;;5.43;1.88;;;;;;;17.85;45.07;101152.84;4977819;28;20034;-67
2024/02/06 05:40:56;;;;;;;7.20;1.67;;;;;;;17.85;44.87;101151.09;4978226;28;20078;-69
2024/02/06 05:43:21;;;;;;;5.90;1.92;;;;;;;17.76;44.84;101136.78;4978281;28;20031;-67
2024/02/06 05:45:46;;;;;;;6.15;1.90;;;;;;;17.85;45.01;101145.81;4977440;28;20080;-68
2024/02/06 05:48:11;;;;;;;5.47;1.80;;;;;;;17.87;45.32;101154.44;4977715;28;20065;-68
2024/02/06 05:50:37;;;;;;;5.80;2.25;;;;;;;17.79;45.19;101148.06;4977679;28;20280;-68
2024/02/06 05:53:02;;;;;;;6.05;2.00;;;;;;;17.77;45.21;101142.91;4978245;28;20031;-67
2024/02/06 05:55:30;;;;;;;4.28;1.60;;;;;;;17.75;45.28;101127.22;4977870;28;20031;-68
2024/02/06 05:57:55;;;;;;;3.75;1.65;;;;;;;17.85;45.20;101145.81;4977826;28;20031;-68
2024/02/06 06:00:21;;;;;;;5.78;2.10;;;;;;;17.83;45.15;101145.09;4977999;28;20042;-68
2024/02/06 06:02:47;;;;;;;3.78;1.85;;;;;;;17.88;45.22;101150.03;4977121;28;20066;-67
2024/02/06 06:05:12;;;;;;;6.22;1.73;;;;;;;17.87;45.40;101137.78;4978104;28;20050;-68
2024/02/06 06:07:37;;;;;;;5.53;1.63;;;;;;;17.85;45.03;101126.50;4978230;28;20034;-68
2024/02/06 06:10:03;;;;;;;4.22;1.65;;;;;;;17.89;45.03;101126.19;4977306;28;20038;-68
2024/02/06 06:12:29;;;;;;;4.70;1.52;;;;;;;17.86;45.30;101121.09;4977675;28;20472;-68
2024/02/06 06:14:54;;;;;;;4.57;1.60;;;;;;;17.92;45.42;101123.31;4978005;28;20022;-67
2024/02/06 06:17:19;;;;;;;5.18;2.05;;;;;;;17.93;45.23;101122.38;4977685;28;20049;-68
2024/02/06 06:19:45;;;;;;;3.90;1.50;;;;;;;17.85;45.80;101101.00;4977930;28;20210;-68
2024/02/06 06:22:10;;;;;;;6.57;2.47;;;;;;;17.87;45.44;101098.25;4977604;28;20275;-68
2024/02/06 06:24:35;;;;;;;4.63;1.60;;;;;;;17.87;45.29;101100.88;4977627;28;20105;-68
2024/02/06 06:27:01;;;;;;;4.05;1.40;;;;;;;18.03;45.44;101092.66;4977348;28;20070;-68
2024/02/06 06:29:26;;;;;;;3.67;1.40;;;;;;;18.03;45.48;101113.75;4977384;28;20467;-69
2024/02/06 06:31:51;;;;;;;4.75;1.70;;;;;;;17.94;45.34;101084.50;4977332;28;20045;-68
2024/02/06 06:34:17;;;;;;;3.15;1.33;;;;;;;17.93;45.77;101082.81;4975972;28;20490;-68
2024/02/06 06:36:42;;;;;;;5.53;1.80;;;;;;;18.13;45.46;101101.53;4977041;28;20038;-69
2024/02/06 06:39:08;;;;;;;3.60;1.55;;;;;;;18.12;45.32;101107.78;4976886;28;20601;-69
2024/02/06 06:41:34;;;;;;;3.60;1.30;;;;;;;18.11;45.34;101099.00;4977115;28;20376;-68
2024/02/06 06:43:59;;;;;;;5.57;1.60;;;;;;;18.19;45.45;101108.16;4975448;28;20137;-67
2024/02/06 06:46:25;;;;;;;5.30;1.70;;;;;;;18.09;45.49;101092.19;4976857;28;20576;-68
2024/02/06 06:48:50;;;;;;;4.65;1.80;;;;;;;18.13;45.39;101093.63;4975213;28;20141;-69
2024/02/06 06:51:15;;;;;;;4.47;1.67;;;;;;;18.24;45.25;101112.09;4975820;28;20043;-68
2024/02/06 06:53:41;;;;;;;4.60;1.70;;;;;;;18.26;45.47;101109.34;4976771;28;20038;-68
2024/02/06 06:56:18;;;;;;;6.80;2.15;;;;;;;18.17;45.15;101095.06;4976714;28;20034;-68
2024/02/06 06:58:44;;;;;;;4.25;1.52;;;;;;;18.27;45.52;101103.13;4978917;28;20026;-68
2024/02/06 07:01:09;;;;;;;5.32;1.58;;;;;;;18.29;45.50;101111.75;4980843;28;20037;-68
2024/02/06 07:03:35;;;;;;;3.33;1.25;;;;;;;18.21;45.27;101095.66;4980081;28;20038;-68
2024/02/06 07:06:00;;;;;;;3.17;1.20;;;;;;;18.24;45.39;101088.34;4981316;28;20392;-68
2024/02/06 07:08:25;;;;;;;6.15;1.55;;;;;;;18.34;45.33;101104.31;4980788;28;20077;-68
2024/02/06 07:10:51;;;;;;;3.67;1.35;;;;;;;18.29;45.43;101078.31;4980775;28;20031;-68
2024/02/06 07:13:17;;;;;;;5.30;1.80;;;;;;;18.17;45.33;101065.22;4980770;28;20082;-68
2024/02/06 07:15:42;;;;;;;3.70;1.65;;;;;;;18.34;45.43;101091.13;4981000;28;20041;-68
2024/02/06 07:18:07;;;;;;;3.50;1.40;;;;;;;18.30;45.37;101087.03;4981003;28;20062;-68
2024/02/06 07:20:32;;;;;;;4.90;1.65;;;;;;;18.22;45.25;101070.97;4980957;28;20038;-68
2024/02/06 07:22:58;;;;;;;4.57;1.50;;;;;;;18.33;45.55;101083.34;4980825;28;20039;-68
2024/02/06 07:25:24;;;;;;;4.72;1.60;;;;;;;18.33;45.25;101078.88;4980826;28;20109;-67
2024/02/06 07:27:49;;;;;;;4.32;1.42;;;;;;;18.31;45.28;101073.72;4980887;28;20062;-68
2024/02/06 07:30:15;;;;;;;5.68;1.50;;;;;;;18.31;45.43;101079.00;4980506;28;20035;-68
2024/02/06 07:32:40;;;;;;;3.70;1.42;;;;;;;18.30;45.37;101076.50;4980493;28;20035;-67
2024/02/06 07:35:07;;;;;;;5.68;1.77;;;;;;;18.20;45.12;101060.53;4981061;28;20026;-67
2024/02/06 07:37:32;;;;;;;4.45;1.23;;;;;;;18.28;45.28;101078.41;4979902;28;20026;-68
2024/02/06 07:39:57;;;;;;;3.42;1.40;;;;;;;18.31;45.47;101080.81;4980040;28;20689;-69
2024/02/06 07:42:23;;;;;;;5.47;1.98;;;;;;;18.31;45.35;101081.66;4980480;28;20034;-68
2024/02/06 07:44:48;;;;;;;4.35;1.70;;;;;;;18.34;45.14;101080.59;4980272;28;20038;-69
2024/02/06 07:47:13;;;;;;;4.32;1.63;;;;;;;18.27;45.49;101068.81;4979764;28;20034;-67
2024/02/06 07:49:38;;;;;;;4.10;1.50;;;;;;;18.28;45.07;101068.69;4979847;28;20035;-68
2024/02/06 07:52:05;;;;;;;6.53;1.70;;;;;;;18.34;45.24;101082.34;4980239;28;20042;-68
2024/02/06 07:54:30;;;;;;;5.07;1.75;;;;;;;18.34;45.15;101085.00;4978728;28;20526;-68
2024/02/06 07:56:55;;;;;;;4.07;1.50;;;;;;;18.32;45.29;101074.56;4980186;28;20105;-68
2024/02/06 07:59:21;;;;;;;5.65;1.45;;;;;;;18.29;45.41;101082.72;4980309;28;20064;-68
2024/02/06 08:01:47;;;;;;;5.32;1.58;;;;;;;18.31;45.29;101083.47;4979723;28;20030;-68
2024/02/06 08:04:13;;;;;;;4.65;1.60;;;;;;;18.29;45.30;101080.94;4979941;28;20500;-67
2024/02/06 08:06:38;;;;;;;6.10;1.60;;;;;;;18.27;45.45;101069.66;4979723;28;20042;-67
2024/02/06 08:09:05;;;;;;;5.45;1.67;;;;;;;18.29;45.63;101078.31;4976675;28;20042;-66
2024/02/06 08:11:31;;;;;;;5.82;1.88;;;;;;;18.18;45.15;101054.53;4979056;28;20513;-66
2024/02/06 08:13:56;;;;;;;5.43;1.80;;;;;;;18.28;45.72;101071.34;4980231;28;20125;-69
2024/02/06 08:16:21;;;;;;;5.15;1.70;;;;;;;18.30;45.48;101065.94;4979629;28;20058;-65
2024/02/06 08:18:47;;;;;;;6.88;1.77;;;;;;;18.24;45.39;101061.13;4976721;28;20037;-67
2024/02/06 08:21:12;;;;;;;4.93;1.58;;;;;;;18.31;45.22;101081.66;4976723;28;20100;-65
2024/02/06 08:23:38;;;;;;;7.30;2.03;;;;;;;18.30;45.43;101064.13;4979370;28;20399;-66
2024/02/06 08:26:03;;;;;;;5.68;2.20;;;;;;;18.22;45.62;101055.16;4977256;28;20034;-66
2024/02/06 08:28:29;;;;;;;5.32;1.98;;;;;;;18.25;45.50;101053.09;4978203;28;20030;-66
2024/02/06 08:30:54;;;;;;;5.95;1.63;;;;;;;18.22;45.53;101050.72;4979092;28;20132;-66
2024/02/06 08:33:19;;;;;;;6.22;2.03;;;;;;;18.29;45.76;101074.81;4979730;28;20042;-66
2024/02/06 08:35:45;;;;;;;8.25;2.22;;;;;;;18.28;45.45;101065.22;4979719;28;20053;-66
2024/02/06 08:38:10;;;;;;;5.53;2.05;;;;;;;18.33;45.68;101086.81;4979435;28;20034;-66
2024/02/06 08:40:35;;;;;;;4.45;1.70;;;;;;;18.31;45.77;101072.91;4979323;28;20038;-66
2024/02/06 08:43:02;;;;;;;5.55;1.70;;;;;;;18.23;45.74;101070.84;4979167;28;20031;-66
2024/02/06 08:45:28;;;;;;;6.43;1.60;;;;;;;18.24;45.70;101066.41;4979058;28;20058;-66
2024/02/06 08:47:53;;;;;;;5.60;2.08;;;;;;;18.31;45.96;101079.00;4978922;28;20086;-67
2024/02/06 08:50:18;;;;;;;4.95;1.60;;;;;;;18.24;45.97;101066.41;4978900;28;20464;-65
2024/02/06 08:52:43;;;;;;;4.70;1.70;;;;;;;18.36;45.83;101094.47;4977702;28;20035;-66
2024/02/06 08:55:09;;;;;;;8.77;2.33;;;;;;;18.37;45.98;101090.88;4978857;28;20045;-65
2024/02/06 08:57:36;;;;;;;5.85;1.50;;;;;;;18.22;46.10;101065.69;4978271;28;20034;-66
2024/02/06 09:00:02;;;;;;;6.35;2.00;;;;;;;18.38;46.34;101092.56;4978622;28;20113;-67
2024/02/06 09:02:29;;;;;;;4.15;1.55;;;;;;;18.38;46.10;101083.81;4977677;28;20495;-67
2024/02/06 09:04:55;;;;;;;4.68;1.75;;;;;;;18.34;46.66;101080.59;4975933;28;20387;-66
2024/02/06 09:07:24;;;;;;;5.72;1.92;;;;;;;18.33;46.64;101070.97;4978013;28;20034;-67
2024/02/06 09:09:55;;;;;;;4.07;1.60;;;;;;;18.26;46.74;101060.06;4977693;28;20112;-69
2024/02/06 09:12:21;;;;;;;4.55;1.90;;;;;;;18.38;46.88;101079.38;4977575;28;20985;-68
2024/02/06 09:14:46;;;;;;;5.50;2.03;;;;;;;18.29;47.06;101048.41;4977154;28;20019;-67
2024/02/06 09:17:11;;;;;;;5.72;1.70;;;;;;;18.31;47.16;101050.00;4977662;28;20035;-68
2024/02/06 09:19:37;;;;;;;5.30;1.65;;;;;;;18.30;46.92;101039.56;4977611;28;20512;-67
2024/02/06 09:22:02;;;;;;;5.80;2.10;;;;;;;18.38;47.02;101055.63;4976693;28;20038;-68
2024/02/06 09:24:27;;;;;;;5.13;1.75;;;;;;;18.45;46.72;101050.69;4976480;28;20489;-68
2024/02/06 09:26:54;;;;;;;4.43;1.63;;;;;;;18.47;47.03;101052.25;4978921;28;20081;-68
2024/02/06 09:29:21;;;;;;;5.72;1.67;;;;;;;18.44;46.76;101056.94;4978602;28;20277;-67
2024/02/06 09:31:47;;;;;;;5.30;1.80;;;;;;;18.45;46.92;101054.19;4977138;28;20034;-68
2024/02/06 09:34:12;;;;;;;5.55;1.65;;;;;;;18.46;46.93;101053.19;4978216;28;20027;-68
2024/02/06 09:36:38;;;;;;;5.35;1.67;;;;;;;18.37;46.89;101032.81;4978440;28;20512;-67
2024/02/06 09:39:05;;;;;;;5.00;1.83;;;;;;;18.37;46.73;101037.25;4978548;28;20109;-68
2024/02/06 09:41:33;;;;;;;4.47;1.50;;;;;;;18.45;47.04;101043.63;4978093;28;20037;-66
2024/02/06 09:43:59;;;;;;;4.72;1.70;;;;;;;18.42;46.72;101043.88;4978452;28;20078;-68
2024/02/06 09:46:25;;;;;;;7.93;1.70;;;;;;;18.36;46.93;101036.44;4976681;28;20486;-67
2024/02/06 09:48:50;;;;;;;5.63;1.92;;;;;;;18.45;47.06;101043.63;4977135;28;20145;-67
2024/02/06 09:51:16;;;;;;;5.68;1.65;;;;;;;18.46;47.09;101039.19;4977622;28;20038;-67
2024/02/06 09:53:43;;;;;;;5.97;1.75;;;;;;;18.38;47.12;101023.13;4977682;28;20113;-67
2024/02/06 09:56:09;;;;;;;6.72;1.88;;;;;;;18.45;47.04;101037.50;4978254;28;20422;-68
2024/02/06 09:58:36;;;;;;;6.53;1.67;;;;;;;18.33;47.03;101022.66;4977660;28;20082;-68
2024/02/06 10:01:02;;;;;;;5.25;1.80;;;;;;;18.43;47.06;101036.78;4968302;28;20034;-67
2024/02/06 10:03:32;;;;;;;4.53;1.70;;;;;;;18.47;47.06;101039.06;4973907;28;20030;-68
2024/02/06 10:05:59;;;;;;;5.72;2.38;;;;;;;18.38;47.21;101023.13;4977234;28;20098;-67
2024/02/06 10:08:26;;;;;;;5.55;1.88;;;;;;;18.48;47.25;101034.59;4977405;28;20081;-67
2024/02/06 10:10:52;;;;;;;6.05;1.83;;;;;;;18.35;47.33;101016.28;4977086;28;20038;-68
2024/02/06 10:13:20;;;;;;;5.78;1.65;;;;;;;18.36;47.41;101002.13;4977331;28;20041;-68
2024/02/06 10:15:45;;;;;;;5.03;1.75;;;;;;;18.39;47.54;101007.16;4976716;28;20034;-68
2024/02/06 10:18:11;;;;;;;6.97;1.92;;;;;;;18.49;47.53;101031.03;4977221;28;20145;-72
2024/02/06 10:20:49;;;;;;;9.27;2.33;;;;;;;18.46;47.49;101018.06;4977158;28;20057;-67
2024/02/06 10:23:17;;;;;;;5.80;1.90;;;;;;;18.51;47.60;101020.34;4976815;28;20522;-66
2024/02/06 10:25:43;;;;;;;5.88;2.10;;;;;;;18.37;47.46;100998.50;4976550;28;20113;-66
2024/02/06 10:28:09;;;;;;;6.78;2.00;;;;;;;18.37;47.55;100987.97;4977164;28;20035;-65
2024/02/06 10:30:35;;;;;;;8.13;2.25;;;;;;;18.39;47.61;100995.75;4976900;28;20039;-64
2024/02/06 10:33:19;;;;;;;5.90;2.00;;;;;;;18.43;47.75;101003.31;4976571;28;20461;-64
2024/02/06 10:35:45;;;;;;;6.72;1.98;;;;;;;18.43;47.63;101002.47;4977245;28;20117;-63
2024/02/06 10:38:12;;;;;;;6.65;2.30;;;;;;;18.38;47.56;100983.53;4976786;28;20118;-63
2024/02/06 10:40:42;;;;;;;5.28;1.83;;;;;;;18.53;47.44;101013.13;4976785;28;20031;-63
2024/02/06 10:43:08;;;;;;;7.38;1.95;;;;;;;18.49;47.52;101016.00;4976748;28;20046;-63
2024/02/06 10:45:34;;;;;;;6.68;1.67;;;;;;;18.54;47.52;101020.09;4976561;28;20030;-63
2024/02/06 10:48:02;;;;;;;7.97;2.30;;;;;;;18.50;47.72;101006.31;4976697;28;20058;-67
2024/02/06 10:50:28;;;;;;;6.43;2.10;;;;;;;18.54;47.61;101015.66;4976892;28;20034;-65
2024/02/06 10:52:53;;;;;;;9.32;2.58;;;;;;;18.46;47.68;101002.22;4976898;28;20038;-64
2024/02/06 10:55:21;;;;;;;6.18;1.85;;;;;;;18.53;47.72;100998.13;4976990;28;20049;-69
2024/02/06 10:57:46;;;;;;;4.35;1.77;;;;;;;18.37;47.80;100977.41;4976464;28;20034;-69
2024/02/06 11:00:17;;;;;;;7.32;2.15;;;;;;;18.54;47.99;100998.97;4976878;28;20037;-69
2024/02/06 11:02:48;;;;;;;6.32;2.30;;;;;;;18.41;48.02;100962.19;4975542;28;20084;-69
2024/02/06 11:05:31;;;;;;;7.72;2.13;;;;;;;18.55;47.93;100988.31;4976407;28;20038;-70
2024/02/06 11:08:03;;;;;;;6.13;2.20;;;;;;;18.51;47.93;100986.84;4982702;28;20034;-68
2024/02/06 11:10:37;;;;;;;7.57;2.20;;;;;;;18.57;47.85;100974.97;4975799;28;20101;-69
2024/02/06 11:13:07;;;;;;;6.35;1.90;;;;;;;18.42;47.79;100954.16;4974757;28;20038;-68
2024/02/06 11:15:37;;;;;;;5.53;1.90;;;;;;;18.52;47.94;100971.84;4976090;28;20035;-70
2024/02/06 11:18:09;;;;;;;5.72;1.95;;;;;;;18.49;47.99;100959.75;4976969;28;20050;-70